createdAt,value
2022-08-14T00:02:01.670Z,36.00
2022-08-14T00:04:32.270Z,35.99
2022-08-14T00:07:07.029Z,36.06
2022-08-14T00:09:40.048Z,36.33
2022-08-14T00:12:33.058Z,36.52
2022-08-14T00:15:06.619Z,36.77
2022-08-14T00:17:47.489Z,36.86
2022-08-14T00:20:24.173Z,36.88
2022-08-14T00:22:58.774Z,36.62
2022-08-14T00:25:42.431Z,37.07
2022-08-14T00:28:15.590Z,36.82
2022-08-14T00:30:46.381Z,37.30
2022-08-14T00:33:16.580Z,37.33
2022-08-14T00:36:36.689Z,37.42
2022-08-14T00:38:34.727Z,37.57
2022-08-14T00:41:03.881Z,37.61
2022-08-14T00:43:33.417Z,37.43
2022-08-14T00:46:05.333Z,37.52
2022-08-14T00:48:36.902Z,38.00
2022-08-14T00:51:08.858Z,37.68
2022-08-14T00:53:37.094Z,38.19
2022-08-14T00:56:08.528Z,38.03
2022-08-14T00:58:45.248Z,38.04
2022-08-14T01:01:18.731Z,38.78
2022-08-14T01:03:49.712Z,38.42
2022-08-14T01:06:21.224Z,38.36
2022-08-14T01:08:58.192Z,38.89
2022-08-14T01:11:35.540Z,39.03
2022-08-14T01:14:25.753Z,38.85
2022-08-14T01:16:55.569Z,38.53
2022-08-14T01:19:41.643Z,38.75
2022-08-14T01:22:13.031Z,38.92
2022-08-14T01:24:43.527Z,39.10
2022-08-14T01:27:16.053Z,39.40
2022-08-14T01:30:26.037Z,39.73
2022-08-14T01:33:04.100Z,39.76
2022-08-14T01:36:03.383Z,39.43
2022-08-14T01:38:38.534Z,39.78
2022-08-14T01:41:19.688Z,39.23
2022-08-14T01:44:32.089Z,39.21
2022-08-14T01:47:21.647Z,39.71
2022-08-14T01:49:59.490Z,39.75
2022-08-14T01:52:59.998Z,40.51
2022-08-14T01:55:35.461Z,40.24
2022-08-14T01:58:19.746Z,40.50
2022-08-14T02:01:02.581Z,40.35
2022-08-14T02:03:34.624Z,40.42
2022-08-14T02:06:33.228Z,40.41
2022-08-14T02:08:59.874Z,40.75
2022-08-14T02:11:37.977Z,40.57
2022-08-14T02:14:14.198Z,40.38
2022-08-14T02:16:48.602Z,40.45
2022-08-14T02:19:19.271Z,40.53
2022-08-14T02:21:54.617Z,40.49
2022-08-14T02:24:39.408Z,40.62
2022-08-14T02:28:22.294Z,40.71
2022-08-14T02:30:02.399Z,40.64
2022-08-14T02:32:36.165Z,40.79
2022-08-14T02:35:10.723Z,40.76
2022-08-14T02:37:47.473Z,40.57
2022-08-14T02:40:18.682Z,40.83
2022-08-14T02:42:54.938Z,40.84
2022-08-14T02:45:33.201Z,41.01
2022-08-14T02:48:10.551Z,41.35
2022-08-14T02:50:56.005Z,41.19
2022-08-14T02:53:24.216Z,41.32
2022-08-14T02:55:54.746Z,41.19
2022-08-14T02:58:30.819Z,41.39
2022-08-14T03:00:59.429Z,41.53
2022-08-14T03:03:31.755Z,41.35
2022-08-14T03:06:04.856Z,41.40
2022-08-14T03:08:34.295Z,41.68
2022-08-14T03:11:08.304Z,41.88
2022-08-14T03:13:39.788Z,41.50
2022-08-14T03:16:26.543Z,42.48
2022-08-14T03:18:58.303Z,42.40
2022-08-14T03:21:28.446Z,42.45
2022-08-14T03:24:03.138Z,42.39
2022-08-14T03:26:34.070Z,42.50
2022-08-14T03:29:06.552Z,43.02
2022-08-14T03:31:42.428Z,42.50
2022-08-14T03:34:24.881Z,42.76
2022-08-14T03:37:51.228Z,42.78
2022-08-14T03:39:47.695Z,43.08
2022-08-14T03:42:19.581Z,43.10
2022-08-14T03:45:27.001Z,43.22
2022-08-14T03:47:46.535Z,42.97
2022-08-14T03:50:31.101Z,43.62
2022-08-14T03:53:02.003Z,43.52
2022-08-14T03:55:30.812Z,43.79
2022-08-14T03:58:00.678Z,43.44
2022-08-14T04:00:43.267Z,43.91
2022-08-14T04:03:19.640Z,43.95
2022-08-14T04:05:52.361Z,44.29
2022-08-14T04:08:29.020Z,43.94
2022-08-14T04:11:00.941Z,44.23
2022-08-14T04:13:32.026Z,44.26
2022-08-14T04:16:04.976Z,44.20
2022-08-14T04:18:33.883Z,44.70
2022-08-14T04:21:02.430Z,44.51
2022-08-14T04:23:33.564Z,44.38
2022-08-14T04:26:03.080Z,44.36
2022-08-14T04:29:06.786Z,44.61
2022-08-14T04:31:24.877Z,44.68
2022-08-14T04:34:20.612Z,44.44
2022-08-14T04:37:10.558Z,44.81
2022-08-14T04:39:57.324Z,44.49
2022-08-14T04:42:47.373Z,45.12
2022-08-14T04:45:22.198Z,45.19
2022-08-14T04:48:10.164Z,44.92
2022-08-14T04:50:44.720Z,45.12
2022-08-14T04:53:14.821Z,44.77
2022-08-14T04:55:46.078Z,44.95
2022-08-14T04:58:21.706Z,44.89
2022-08-14T05:01:00.907Z,45.06
2022-08-14T05:03:32.938Z,45.10
2022-08-14T05:06:03.351Z,45.21
2022-08-14T05:08:50.412Z,44.79
2022-08-14T05:11:20.743Z,45.39
2022-08-14T05:16:38.300Z,44.74
2022-08-14T05:19:17.822Z,45.08
2022-08-14T05:22:00.933Z,45.06
2022-08-14T05:24:44.203Z,45.30
2022-08-14T05:27:12.208Z,45.15
2022-08-14T05:29:40.940Z,45.42
2022-08-14T05:32:10.533Z,45.35
2022-08-14T05:34:40.064Z,44.45
2022-08-14T05:37:15.328Z,45.07
2022-08-14T05:39:43.936Z,44.94
2022-08-14T05:42:22.434Z,44.80
2022-08-14T05:44:55.987Z,44.83
2022-08-14T05:47:24.432Z,44.12
2022-08-14T05:49:59.868Z,44.51
2022-08-14T05:52:38.949Z,44.34
2022-08-14T05:55:08.533Z,44.37
2022-08-14T05:57:36.835Z,44.09
2022-08-14T06:00:05.908Z,43.92
2022-08-14T06:02:37.562Z,43.38
2022-08-14T06:05:08.917Z,42.41
2022-08-14T06:07:44.811Z,42.54
2022-08-14T06:10:23.185Z,41.62
2022-08-14T06:13:00.146Z,40.73
2022-08-14T06:15:30.673Z,39.76
2022-08-14T06:18:00.771Z,39.10
2022-08-14T06:20:31.361Z,38.27
2022-08-14T06:23:02.224Z,37.39
2022-08-14T06:25:30.273Z,36.91
2022-08-14T06:28:00.953Z,35.75
2022-08-14T06:30:45.953Z,35.02
2022-08-14T06:33:15.716Z,34.83
2022-08-14T06:35:46.633Z,34.28
2022-08-14T06:38:17.523Z,33.96
2022-08-14T06:40:46.479Z,32.22
2022-08-14T06:43:15.401Z,32.29
2022-08-14T06:45:48.318Z,32.20
2022-08-14T06:48:26.363Z,31.55
2022-08-14T06:50:58.015Z,31.47
2022-08-14T06:53:27.649Z,30.87
2022-08-14T06:56:00.602Z,30.26
2022-08-14T06:58:30.721Z,29.04
2022-08-14T07:01:19.400Z,28.66
2022-08-14T07:04:23.169Z,27.63
2022-08-14T07:06:59.650Z,27.55
2022-08-14T07:09:43.700Z,26.37
2022-08-14T07:12:54.152Z,25.57
2022-08-14T07:15:01.936Z,25.28
2022-08-14T07:17:31.941Z,25.17
2022-08-14T07:20:02.603Z,25.09
2022-08-14T07:22:32.956Z,25.43
2022-08-14T07:25:19.182Z,23.95
2022-08-14T07:27:48.135Z,23.58
2022-08-14T07:30:34.134Z,23.80
2022-08-14T07:33:03.817Z,23.45
2022-08-14T07:35:42.884Z,23.55
2022-08-14T07:38:36.291Z,22.93
2022-08-14T07:41:31.176Z,22.69
2022-08-14T07:54:42.981Z,22.53
2022-08-14T07:57:24.830Z,21.73
2022-08-14T07:59:53.180Z,21.20
2022-08-14T08:02:22.437Z,21.15
2022-08-14T08:04:54.343Z,20.75
2022-08-14T08:07:24.288Z,20.38
2022-08-14T08:09:59.635Z,20.13
2022-08-14T08:12:38.063Z,19.44
2022-08-14T08:15:08.014Z,19.28
2022-08-14T08:17:38.653Z,19.32
2022-08-14T08:20:11.445Z,19.28
2022-08-14T08:22:43.507Z,19.10
2022-08-14T08:25:18.881Z,18.67
2022-08-14T08:27:58.988Z,18.37
2022-08-14T08:30:27.183Z,18.35
2022-08-14T08:32:58.292Z,17.90
2022-08-14T08:35:32.968Z,17.18
2022-08-14T08:39:15.409Z,17.13
2022-08-14T08:41:11.069Z,16.78
2022-08-14T08:43:39.631Z,16.31
2022-08-14T08:46:18.552Z,16.08
2022-08-14T08:48:53.772Z,15.13
2022-08-14T08:51:30.517Z,15.82
2022-08-14T08:54:00.299Z,14.79
2022-08-14T08:56:40.441Z,15.26
2022-08-14T08:59:21.015Z,14.27
2022-08-14T09:01:56.367Z,14.35
2022-08-14T09:04:26.444Z,14.23
2022-08-14T09:07:10.012Z,14.52
2022-08-14T09:09:53.687Z,14.05
2022-08-14T09:12:32.547Z,13.45
2022-08-14T09:15:02.777Z,13.00
2022-08-14T09:17:30.872Z,12.79
2022-08-14T09:20:02.207Z,12.89
2022-08-14T09:22:34.893Z,11.90
2022-08-14T09:25:06.927Z,11.89
2022-08-14T09:27:37.623Z,12.30
2022-08-14T09:30:31.692Z,12.21
2022-08-14T09:33:12.358Z,12.05
2022-08-14T09:35:48.572Z,12.31
2022-08-14T09:38:28.726Z,11.98
2022-08-14T09:41:00.474Z,10.76
2022-08-14T09:43:32.364Z,11.36
2022-08-14T09:46:04.237Z,11.51
2022-08-14T09:48:32.353Z,10.98
2022-08-14T09:54:19.207Z,10.20
2022-08-14T09:56:33.000Z,11.22
2022-08-14T09:59:12.890Z,11.23
2022-08-14T10:01:43.703Z,10.84
2022-08-14T10:04:33.941Z,10.68
2022-08-14T10:07:05.512Z,10.78
2022-08-14T10:09:34.995Z,10.28
2022-08-14T10:12:04.705Z,9.36
2022-08-14T10:14:36.947Z,9.32
2022-08-14T10:17:08.654Z,8.93
2022-08-14T10:19:37.116Z,9.23
2022-08-14T10:23:22.233Z,9.34
2022-08-14T10:24:55.285Z,9.21
2022-08-14T10:27:25.113Z,9.07
2022-08-14T10:29:58.161Z,8.34
2022-08-14T10:32:36.397Z,8.35
2022-08-14T10:35:13.661Z,8.22
2022-08-14T10:37:44.303Z,8.83
2022-08-14T10:40:37.697Z,8.84
2022-08-14T10:43:02.752Z,8.41
2022-08-14T10:45:35.713Z,8.84
2022-08-14T10:48:24.473Z,9.48
2022-08-14T10:51:08.390Z,10.08
2022-08-14T10:53:39.994Z,11.58
2022-08-14T10:56:21.831Z,13.14
2022-08-14T10:59:02.447Z,13.90
2022-08-14T11:01:41.454Z,13.89
2022-08-14T11:04:27.649Z,13.91
2022-08-14T11:06:56.195Z,13.99
2022-08-14T11:09:26.471Z,14.75
2022-08-14T11:12:36.702Z,14.31
2022-08-14T11:14:58.905Z,14.05
2022-08-14T11:17:31.757Z,13.42
2022-08-14T11:20:01.345Z,13.68
2022-08-14T11:23:03.185Z,12.87
2022-08-14T11:25:19.481Z,12.86
2022-08-14T11:27:49.125Z,12.61
2022-08-14T11:30:50.273Z,12.50
2022-08-14T11:33:09.088Z,13.16
2022-08-14T11:35:47.463Z,13.40
2022-08-14T11:38:17.027Z,14.17
2022-08-14T11:40:47.153Z,15.56
2022-08-14T11:43:16.286Z,15.97
2022-08-14T11:45:47.940Z,16.22
2022-08-14T11:49:04.265Z,16.41
2022-08-14T11:51:13.878Z,16.42
2022-08-14T11:53:43.679Z,17.63
2022-08-14T11:56:13.708Z,17.58
2022-08-14T11:58:42.380Z,16.91
2022-08-14T12:01:10.460Z,16.69
2022-08-14T12:03:51.479Z,16.43
2022-08-14T12:06:28.866Z,17.09
2022-08-14T12:09:08.930Z,17.52
2022-08-14T12:11:46.961Z,17.84
2022-08-14T12:14:29.810Z,17.92
2022-08-14T12:17:01.938Z,18.15
2022-08-14T12:19:33.412Z,18.24
2022-08-14T12:22:02.989Z,18.18
2022-08-14T12:24:36.174Z,18.32
2022-08-14T12:27:05.435Z,18.75
2022-08-14T12:29:35.093Z,19.33
2022-08-14T12:32:08.920Z,19.35
2022-08-14T12:34:40.271Z,19.73
2022-08-14T12:37:13.200Z,18.91
2022-08-14T12:39:41.163Z,19.90
2022-08-14T12:42:11.878Z,19.50
2022-08-14T12:44:57.662Z,19.89
2022-08-14T12:47:31.171Z,20.61
2022-08-14T12:50:00.590Z,19.92
2022-08-14T12:52:43.053Z,20.38
2022-08-14T12:55:20.963Z,20.57
2022-08-14T12:57:53.147Z,20.63
2022-08-14T13:00:24.293Z,20.28
2022-08-14T13:02:55.464Z,21.30
2022-08-14T13:05:27.443Z,21.43
2022-08-14T13:07:59.287Z,21.08
2022-08-14T13:10:51.369Z,21.15
2022-08-14T13:13:17.302Z,21.22
2022-08-14T13:15:46.382Z,20.51
2022-08-14T13:18:15.666Z,20.89
2022-08-14T13:20:49.411Z,20.43
2022-08-14T13:23:31.769Z,20.68
2022-08-14T13:26:00.307Z,21.03
2022-08-14T13:28:33.398Z,21.45
2022-08-14T13:33:37.223Z,21.42
2022-08-14T13:36:11.024Z,21.68
2022-08-14T13:38:51.864Z,21.98
2022-08-14T13:41:31.848Z,22.17
2022-08-14T13:44:03.363Z,22.38
2022-08-14T13:46:31.320Z,22.32
2022-08-14T13:49:00.108Z,22.55
2022-08-14T13:51:31.992Z,22.33
2022-08-14T13:54:10.108Z,22.03
2022-08-14T13:56:39.813Z,22.43
2022-08-14T13:59:07.928Z,22.47
2022-08-14T14:01:42.910Z,22.58
2022-08-14T14:04:19.229Z,22.16
2022-08-14T14:06:50.942Z,21.95
2022-08-14T14:09:32.348Z,21.86
2022-08-14T14:12:06.376Z,21.43
2022-08-14T14:14:51.612Z,21.91
2022-08-14T14:17:24.529Z,21.59
2022-08-14T14:19:52.479Z,21.57
2022-08-14T14:22:35.450Z,21.10
2022-08-14T14:25:14.402Z,21.56
2022-08-14T14:27:48.966Z,21.79
2022-08-14T14:30:46.482Z,21.26
2022-08-14T14:33:44.173Z,21.31
2022-08-14T14:35:59.417Z,21.03
2022-08-14T14:38:30.959Z,20.73
2022-08-14T14:41:01.397Z,21.40
2022-08-14T14:43:29.596Z,21.16
2022-08-14T14:45:57.826Z,21.66
2022-08-14T14:48:27.116Z,21.86
2022-08-14T14:50:57.037Z,21.87
2022-08-14T14:53:25.543Z,21.83
2022-08-14T14:56:47.698Z,21.87
2022-08-14T14:58:45.910Z,21.40
2022-08-14T15:01:14.370Z,21.57
2022-08-14T15:03:43.205Z,21.72
2022-08-14T15:06:11.056Z,22.00
2022-08-14T15:08:56.767Z,22.28
2022-08-14T15:11:30.493Z,22.11
2022-08-14T15:13:59.966Z,22.18
2022-08-14T15:16:28.149Z,22.63
2022-08-14T15:18:56.066Z,22.67
2022-08-14T15:21:25.574Z,22.75
2022-08-14T15:23:55.196Z,22.53
2022-08-14T15:26:31.462Z,22.65
2022-08-14T15:29:04.919Z,22.69
2022-08-14T15:31:34.737Z,22.29
2022-08-14T15:34:43.646Z,22.16
2022-08-14T15:37:01.507Z,22.27
2022-08-14T15:39:33.760Z,22.17
2022-08-14T15:42:14.286Z,22.27
2022-08-14T15:44:56.789Z,21.93
2022-08-14T15:47:27.950Z,22.08
2022-08-14T15:49:59.172Z,22.09
2022-08-14T15:52:32.482Z,22.56
2022-08-14T15:55:03.479Z,23.30
2022-08-14T15:57:32.274Z,23.27
2022-08-14T16:00:39.991Z,23.63
2022-08-14T16:03:11.609Z,23.27
2022-08-14T16:05:39.663Z,23.18
2022-08-14T16:08:27.263Z,23.07
2022-08-14T16:10:56.917Z,22.91
2022-08-14T16:13:39.895Z,22.75
2022-08-14T16:16:49.741Z,22.47
2022-08-14T16:19:03.183Z,22.35
2022-08-14T16:21:31.550Z,22.38
2022-08-14T16:24:00.654Z,22.69
2022-08-14T16:26:29.283Z,22.87
2022-08-14T16:29:02.553Z,23.01
2022-08-14T16:31:36.323Z,23.01
2022-08-14T16:34:45.060Z,22.83
2022-08-14T16:36:53.350Z,23.50
2022-08-14T16:39:21.235Z,24.31
2022-08-14T16:41:51.201Z,24.90
2022-08-14T16:44:23.173Z,25.68
2022-08-14T16:47:01.668Z,25.58
2022-08-14T16:50:03.043Z,26.30
2022-08-14T16:52:25.666Z,26.74
2022-08-14T16:55:06.894Z,27.08
2022-08-14T16:57:34.763Z,26.66
2022-08-14T17:00:07.176Z,27.26
2022-08-14T17:02:50.311Z,26.83
2022-08-14T17:05:19.898Z,27.09
2022-08-14T17:08:28.425Z,26.74
2022-08-14T17:11:09.760Z,27.54
2022-08-14T17:13:59.347Z,27.17
2022-08-14T17:16:26.416Z,27.90
2022-08-14T17:19:00.943Z,28.35
2022-08-14T17:21:31.238Z,27.98
2022-08-14T17:24:00.703Z,28.10
2022-08-14T17:26:37.085Z,28.54
2022-08-14T17:29:08.727Z,29.20
2022-08-14T17:31:58.579Z,28.89
2022-08-14T17:34:26.128Z,29.35
2022-08-14T17:37:01.789Z,30.47
2022-08-14T17:39:40.093Z,30.22
2022-08-14T17:42:13.298Z,31.10
2022-08-14T17:44:45.002Z,31.31
2022-08-14T17:47:14.762Z,31.19
2022-08-14T17:49:51.971Z,32.17
2022-08-14T17:52:35.823Z,32.32
2022-08-14T17:55:04.740Z,32.87
2022-08-14T17:57:35.217Z,32.97
2022-08-14T18:00:10.503Z,33.53
2022-08-14T18:02:41.099Z,33.45
2022-08-14T18:05:23.394Z,33.17
2022-08-14T18:08:33.137Z,33.40
2022-08-14T18:10:55.326Z,33.17
2022-08-14T18:13:49.998Z,31.54
2022-08-14T18:16:20.172Z,31.93
2022-08-14T18:18:49.926Z,31.70
2022-08-14T18:21:42.153Z,31.96
2022-08-14T18:24:20.029Z,31.83
2022-08-14T18:27:01.736Z,31.52
2022-08-14T18:30:32.090Z,31.56
2022-08-14T18:32:54.918Z,31.81
2022-08-14T18:35:24.321Z,31.72
2022-08-14T18:38:25.618Z,32.09
2022-08-14T18:40:55.216Z,32.03
2022-08-14T18:43:43.187Z,32.26
2022-08-14T18:47:00.158Z,32.75
2022-08-14T18:49:14.659Z,32.78
2022-08-14T18:51:45.496Z,32.80
2022-08-14T18:54:29.698Z,32.85
2022-08-14T18:57:01.134Z,32.65
2022-08-14T18:59:30.110Z,32.81
2022-08-14T19:02:42.545Z,33.17
2022-08-14T19:05:10.962Z,32.96
2022-08-14T19:07:40.483Z,33.12
2022-08-14T19:10:17.088Z,33.53
2022-08-14T19:13:05.358Z,33.25
2022-08-14T19:15:42.621Z,33.41
2022-08-14T19:18:25.944Z,33.19
2022-08-14T19:20:58.205Z,33.87
2022-08-14T19:23:40.581Z,33.76
2022-08-14T19:26:36.707Z,34.17
2022-08-14T19:29:26.730Z,33.64
2022-08-14T19:32:06.895Z,33.72
2022-08-14T19:34:40.478Z,33.84
2022-08-14T19:37:28.507Z,34.08
2022-08-14T19:40:15.229Z,34.63
2022-08-14T19:42:49.437Z,34.45
2022-08-14T19:45:18.786Z,34.57
2022-08-14T19:47:49.915Z,34.91
2022-08-14T19:50:31.176Z,34.54
2022-08-14T19:53:11.115Z,34.79
2022-08-14T19:55:45.791Z,35.05
2022-08-14T19:58:15.261Z,34.94
2022-08-14T20:00:52.210Z,34.81
2022-08-14T20:03:24.012Z,35.46
2022-08-14T20:06:05.774Z,35.29
2022-08-14T20:11:00.004Z,35.43
2022-08-14T20:11:44.494Z,35.55
2022-08-14T20:14:22.974Z,35.45
2022-08-14T20:17:03.172Z,35.29
2022-08-14T20:19:37.725Z,35.43
2022-08-14T20:22:36.675Z,35.70
2022-08-14T20:25:02.798Z,35.37
2022-08-14T20:27:39.605Z,36.17
2022-08-14T20:30:32.863Z,35.54
2022-08-14T20:33:02.523Z,36.21
2022-08-14T20:35:35.391Z,36.34
2022-08-14T20:38:29.052Z,36.26
2022-08-14T20:40:54.123Z,36.57
2022-08-14T20:43:40.344Z,36.82
2022-08-14T20:46:14.443Z,36.39
2022-08-14T20:48:53.371Z,36.66
2022-08-14T20:51:24.179Z,37.16
2022-08-14T20:54:01.646Z,37.11
2022-08-14T20:56:35.334Z,36.91
2022-08-14T20:59:17.518Z,37.04
2022-08-14T21:01:50.144Z,37.00
2022-08-14T21:04:26.966Z,37.19
2022-08-14T21:07:33.719Z,37.56
2022-08-14T21:10:04.776Z,37.23
2022-08-14T21:12:35.860Z,37.53
2022-08-14T21:15:11.128Z,37.11
2022-08-14T21:17:41.490Z,37.88
2022-08-14T21:20:25.526Z,38.19
2022-08-14T21:22:56.638Z,37.66
2022-08-14T21:25:28.163Z,38.59
2022-08-14T21:28:00.175Z,38.24
2022-08-14T21:30:51.825Z,38.21
2022-08-14T21:33:20.540Z,38.50
2022-08-14T21:35:50.038Z,38.12
2022-08-14T21:38:34.210Z,38.19
2022-08-14T21:41:42.271Z,38.84
2022-08-14T21:44:17.877Z,39.15
2022-08-14T21:46:50.475Z,39.18
2022-08-14T21:49:21.012Z,39.42
2022-08-14T21:52:05.215Z,39.69
2022-08-14T21:54:49.568Z,39.81
2022-08-14T21:57:53.438Z,39.99
2022-08-14T22:00:30.275Z,40.21
2022-08-14T22:03:01.764Z,40.19
2022-08-14T22:05:31.285Z,40.42
2022-08-14T22:07:59.141Z,39.88
2022-08-14T22:10:30.581Z,40.12
2022-08-14T22:13:01.574Z,40.86
2022-08-14T22:15:30.165Z,41.22
2022-08-14T22:17:58.331Z,41.36
2022-08-14T22:20:28.279Z,41.23
2022-08-14T22:22:58.718Z,41.75
2022-08-14T22:25:33.882Z,41.41
2022-08-14T22:28:02.422Z,41.60
2022-08-14T22:30:31.373Z,41.82
2022-08-14T22:33:00.180Z,41.88
2022-08-14T22:35:28.280Z,42.20
2022-08-14T22:38:35.013Z,42.21
2022-08-14T22:41:09.662Z,42.34
2022-08-14T22:43:35.239Z,42.39
2022-08-14T22:46:06.299Z,41.89
2022-08-14T22:48:45.069Z,42.12
2022-08-14T22:51:13.728Z,41.87
2022-08-14T22:53:43.630Z,42.45
2022-08-14T22:56:20.897Z,42.48
2022-08-14T22:58:53.536Z,42.39
2022-08-14T23:01:23.505Z,42.52
2022-08-14T23:03:52.653Z,42.85
2022-08-14T23:07:03.076Z,42.81
2022-08-14T23:09:36.682Z,42.89
2022-08-14T23:11:58.018Z,42.96
2022-08-14T23:14:29.749Z,43.17
2022-08-14T23:16:58.707Z,43.06
2022-08-14T23:19:33.540Z,42.94
2022-08-14T23:22:02.080Z,43.07
2022-08-14T23:24:31.349Z,42.96
2022-08-14T23:26:59.233Z,43.17
2022-08-14T23:29:27.241Z,43.65
2022-08-14T23:31:59.612Z,43.27
2022-08-14T23:34:29.478Z,43.29
2022-08-14T23:36:58.216Z,43.69
2022-08-14T23:39:34.670Z,43.69
2022-08-14T23:42:05.128Z,43.71
2022-08-14T23:44:35.225Z,43.76
2022-08-14T23:47:10.538Z,43.48
2022-08-14T23:50:01.400Z,43.82
2022-08-14T23:53:04.077Z,43.55
2022-08-14T23:55:18.193Z,43.63
2022-08-14T23:57:57.202Z,43.27
